Time;durP1;ratioP1;P1;durP2;ratioP2;P2;SDS_P1;SDS_P2;PMS_P1;PMS_P2;Temp;Humidity;BMP_temperature;BMP_pressure;BME280_temperature;BME280_humidity;BME280_pressure;Samples;Min_cycle;Max_cycle;Signal;HPM_P1;HPM_P2
2022/05/04 00:00:59;;;;;;;5.82;3.50;;;;;;;;;;10544446;28;20133;-73
2022/05/04 00:06:02;;;;;;;6.20;2.97;;;;;;;;;;10539957;28;20059;-75
2022/05/04 00:11:07;;;;;;;5.18;2.70;;;;;;;;;;10527652;28;20534;-75
2022/05/04 00:16:10;;;;;;;7.68;3.63;;;;;;;;;;10529827;28;20119;-76
2022/05/04 00:21:13;;;;;;;5.80;3.30;;;;;;;;;;10541044;28;20054;-76
2022/05/04 00:26:17;;;;;;;7.35;4.15;;;;;;;;;;10547441;28;20148;-76
2022/05/04 00:31:20;;;;;;;8.02;4.18;;;;;;;;;;10510780;28;20139;-76
2022/05/04 00:36:24;;;;;;;10.13;4.90;;;;;;;;;;10557840;28;20039;-75
2022/05/04 00:41:29;;;;;;;10.57;5.25;;;;;;;;;;10539877;28;20032;-74
2022/05/04 00:46:31;;;;;;;9.65;4.80;;;;;;;;;;10541856;27;20508;-76
2022/05/04 00:51:35;;;;;;;14.00;4.35;;;;;;;;;;10542937;28;20035;-74
2022/05/04 00:56:40;;;;;;;11.30;5.65;;;;;;;;;;10520763;28;20036;-74
2022/05/04 01:01:43;;;;;;;10.68;5.32;;;;;;;;;;10543919;28;20268;-75
2022/05/04 01:06:47;;;;;;;10.75;5.25;;;;;;;;;;10522073;28;21325;-75
2022/05/04 01:11:51;;;;;;;7.88;3.97;;;;;;;;;;10525257;28;20042;-75
2022/05/04 01:16:54;;;;;;;7.57;3.97;;;;;;;;;;10529856;28;20464;-76
2022/05/04 01:21:59;;;;;;;11.88;5.50;;;;;;;;;;10526379;28;20073;-75
2022/05/04 01:27:04;;;;;;;12.55;5.75;;;;;;;;;;10520441;28;20116;-75
2022/05/04 01:32:07;;;;;;;10.38;4.63;;;;;;;;;;10546305;28;20032;-76
2022/05/04 01:37:13;;;;;;;10.70;5.18;;;;;;;;;;10548426;28;20114;-75
2022/05/04 01:42:16;;;;;;;15.25;4.50;;;;;;;;;;10544649;28;20037;-73
2022/05/04 01:47:19;;;;;;;9.32;5.25;;;;;;;;;;10524242;28;20035;-76
2022/05/04 01:52:25;;;;;;;10.43;5.07;;;;;;;;;;10542933;28;20066;-74
2022/05/04 01:57:28;;;;;;;8.55;4.50;;;;;;;;;;10534278;28;20039;-72
2022/05/04 02:02:31;;;;;;;10.67;5.37;;;;;;;;;;10538372;28;20040;-74
2022/05/04 02:07:37;;;;;;;8.02;4.63;;;;;;;;;;10538613;28;20768;-73
2022/05/04 02:12:40;;;;;;;8.32;4.28;;;;;;;;;;10549803;28;20071;-75
2022/05/04 02:17:43;;;;;;;8.05;4.55;;;;;;;;;;10542666;28;20035;-72
2022/05/04 02:22:47;;;;;;;10.07;4.90;;;;;;;;;;10546132;28;20135;-74
2022/05/04 02:27:50;;;;;;;8.55;4.57;;;;;;;;;;10523832;28;20067;-75
2022/05/04 02:32:53;;;;;;;10.48;4.90;;;;;;;;;;10545157;28;20036;-75
2022/05/04 02:37:59;;;;;;;10.00;4.97;;;;;;;;;;10528298;28;20067;-75
2022/05/04 02:43:03;;;;;;;9.05;4.63;;;;;;;;;;10549929;28;20042;-74
2022/05/04 02:48:07;;;;;;;8.95;4.88;;;;;;;;;;10547567;28;20024;-75
2022/05/04 02:53:11;;;;;;;7.97;3.77;;;;;;;;;;10546324;28;20120;-73
2022/05/04 02:58:14;;;;;;;10.43;4.13;;;;;;;;;;10551031;28;20297;-74
2022/05/04 03:03:18;;;;;;;8.73;4.18;;;;;;;;;;10551403;28;20092;-74
2022/05/04 03:08:22;;;;;;;6.68;3.95;;;;;;;;;;10530393;28;20060;-76
2022/05/04 03:13:25;;;;;;;8.30;4.53;;;;;;;;;;10530190;28;20063;-76
2022/05/04 03:18:28;;;;;;;7.60;3.72;;;;;;;;;;10531063;28;20509;-72
2022/05/04 03:23:36;;;;;;;8.15;4.35;;;;;;;;;;10548099;28;20478;-75
2022/05/04 03:28:39;;;;;;;9.52;4.45;;;;;;;;;;10529712;28;20048;-74
2022/05/04 03:33:42;;;;;;;6.82;3.83;;;;;;;;;;10546372;28;20036;-75
2022/05/04 03:38:46;;;;;;;8.85;4.20;;;;;;;;;;10530173;28;20028;-76
2022/05/04 03:43:49;;;;;;;9.15;4.68;;;;;;;;;;10551151;28;20123;-74
2022/05/04 03:48:53;;;;;;;7.45;4.43;;;;;;;;;;10543523;28;20518;-74
2022/05/04 03:54:01;;;;;;;10.07;4.72;;;;;;;;;;10533242;28;20066;-74
2022/05/04 03:59:05;;;;;;;10.85;4.80;;;;;;;;;;10524943;28;20505;-74
2022/05/04 04:04:08;;;;;;;8.80;4.93;;;;;;;;;;10526482;28;20511;-74
2022/05/04 04:09:12;;;;;;;9.63;4.72;;;;;;;;;;10528012;28;20080;-74
2022/05/04 04:14:15;;;;;;;7.53;4.00;;;;;;;;;;10546443;28;20110;-76
2022/05/04 04:19:17;;;;;;;8.25;4.18;;;;;;;;;;10525922;28;20036;-76
2022/05/04 04:24:23;;;;;;;8.15;3.97;;;;;;;;;;10529269;28;20093;-74
2022/05/04 04:29:26;;;;;;;7.68;4.13;;;;;;;;;;10529502;28;20028;-74
2022/05/04 04:34:30;;;;;;;5.68;3.20;;;;;;;;;;10541946;28;20048;-75
2022/05/04 04:39:34;;;;;;;6.83;3.40;;;;;;;;;;10545188;28;20035;-75
2022/05/04 04:44:37;;;;;;;4.65;2.38;;;;;;;;;;10526049;28;20174;-75
2022/05/04 04:49:40;;;;;;;5.90;3.28;;;;;;;;;;10533426;28;20101;-75
2022/05/04 04:54:44;;;;;;;6.05;3.25;;;;;;;;;;10541567;28;20089;-75
2022/05/04 04:59:49;;;;;;;5.88;3.90;;;;;;;;;;10542839;28;20131;-76
2022/05/04 05:04:54;;;;;;;6.90;3.17;;;;;;;;;;10542843;28;20488;-74
2022/05/04 05:09:58;;;;;;;4.95;2.80;;;;;;;;;;10530651;28;20063;-76
2022/05/04 05:20:22;;;;;;;4.82;2.80;;;;;;;;;;10539070;28;20032;-76
2022/05/04 05:25:27;;;;;;;4.38;2.70;;;;;;;;;;10526357;28;20039;-75
2022/05/04 05:30:30;;;;;;;3.90;2.35;;;;;;;;;;10526656;28;20866;-76
2022/05/04 05:35:32;;;;;;;7.22;2.75;;;;;;;;;;10541307;28;20116;-76
2022/05/04 05:40:37;;;;;;;4.40;2.63;;;;;;;;;;10546511;28;20055;-75
2022/05/04 05:45:39;;;;;;;2.97;1.73;;;;;;;;;;10546118;28;20093;-75
2022/05/04 05:50:42;;;;;;;5.65;2.85;;;;;;;;;;10542234;28;20040;-76
2022/05/04 05:55:47;;;;;;;5.32;3.03;;;;;;;;;;10521390;28;20051;-76
2022/05/04 06:00:50;;;;;;;4.13;2.20;;;;;;;;;;10537036;28;20032;-75
2022/05/04 06:05:54;;;;;;;6.22;3.20;;;;;;;;;;10533523;28;20063;-76
2022/05/04 06:10:58;;;;;;;4.93;3.10;;;;;;;;;;10527565;28;20032;-76
2022/05/04 06:16:01;;;;;;;6.40;3.10;;;;;;;;;;10531027;28;20063;-75
2022/05/04 06:21:04;;;;;;;5.47;3.30;;;;;;;;;;10549462;28;20032;-75
2022/05/04 06:26:08;;;;;;;5.93;3.00;;;;;;;;;;10549798;28;20135;-76
2022/05/04 06:36:33;;;;;;;4.55;2.60;;;;;;;;;;10552042;28;20043;-76
2022/05/04 06:41:38;;;;;;;8.63;3.30;;;;;;;;;;10539994;28;20020;-76
2022/05/04 06:46:42;;;;;;;5.07;3.20;;;;;;;;;;10543719;28;20404;-76
2022/05/04 06:51:45;;;;;;;8.93;3.20;;;;;;;;;;10544243;28;20124;-75
2022/05/04 06:56:55;;;;;;;5.43;2.50;;;;;;;;;;10542631;28;20050;-76
2022/05/04 07:01:58;;;;;;;4.82;2.85;;;;;;;;;;10529964;28;20547;-73
2022/05/04 07:07:00;;;;;;;4.47;2.63;;;;;;;;;;10525953;28;20040;-75
2022/05/04 07:12:05;;;;;;;4.70;2.40;;;;;;;;;;10546402;28;20035;-74
2022/05/04 07:17:10;;;;;;;3.88;2.58;;;;;;;;;;10521458;28;20040;-74
2022/05/04 07:22:13;;;;;;;3.90;2.55;;;;;;;;;;10548087;28;20220;-73
2022/05/04 07:27:18;;;;;;;3.70;2.17;;;;;;;;;;10525424;28;20036;-75
2022/05/04 07:32:21;;;;;;;4.20;2.00;;;;;;;;;;10524613;28;20671;-76
2022/05/04 07:37:24;;;;;;;3.03;2.13;;;;;;;;;;10541085;28;20368;-75
2022/05/04 07:42:29;;;;;;;3.10;1.90;;;;;;;;;;10519347;28;20460;-76
2022/05/04 07:47:33;;;;;;;5.85;2.10;;;;;;;;;;10541593;28;20146;-73
2022/05/04 07:52:35;;;;;;;3.50;1.85;;;;;;;;;;10521664;28;20067;-74
2022/05/04 07:57:38;;;;;;;;;;;;;;;;;;10534764;28;20044;-73
2022/05/04 08:08:07;;;;;;;3.92;1.88;;;;;;;;;;10540158;28;20385;-76
2022/05/04 08:13:09;;;;;;;2.50;1.98;;;;;;;;;;10525620;28;20060;-75
2022/05/04 08:18:14;;;;;;;2.45;2.20;;;;;;;;;;10540044;28;20581;-75
2022/05/04 08:23:17;;;;;;;4.18;2.00;;;;;;;;;;10521977;28;20115;-73
2022/05/04 08:28:21;;;;;;;4.53;2.30;;;;;;;;;;10521177;28;20577;-73
2022/05/04 08:33:26;;;;;;;2.28;1.90;;;;;;;;;;10552778;28;20039;-77
2022/05/04 08:38:29;;;;;;;3.08;2.33;;;;;;;;;;10514394;28;20107;-76
2022/05/04 08:43:32;;;;;;;3.40;2.08;;;;;;;;;;10540484;28;20504;-75
2022/05/04 08:48:37;;;;;;;4.75;2.00;;;;;;;;;;10528342;28;20063;-75
2022/05/04 08:53:42;;;;;;;2.63;2.38;;;;;;;;;;10522231;28;20052;-75
2022/05/04 08:58:45;;;;;;;3.00;2.50;;;;;;;;;;10541295;28;20032;-75
2022/05/04 09:03:49;;;;;;;3.22;2.30;;;;;;;;;;10545209;28;20063;-76
2022/05/04 09:08:56;;;;;;;2.45;1.85;;;;;;;;;;10539842;28;20051;-76
2022/05/04 09:13:58;;;;;;;3.55;1.90;;;;;;;;;;10528046;28;20063;-74
2022/05/04 09:19:05;;;;;;;2.10;1.58;;;;;;;;;;10535967;28;20089;-75
2022/05/04 09:24:08;;;;;;;1.40;1.30;;;;;;;;;;10531968;28;20043;-75
2022/05/04 09:29:11;;;;;;;2.28;1.48;;;;;;;;;;10534703;28;20063;-75
2022/05/04 09:34:16;;;;;;;9.52;2.15;;;;;;;;;;10544346;28;20392;-73
2022/05/04 09:44:57;;;;;;;9.23;2.70;;;;;;;;;;10543875;28;20047;-73
2022/05/04 09:50:04;;;;;;;5.72;2.65;;;;;;;;;;10524615;28;20093;-74
2022/05/04 09:55:13;;;;;;;4.72;2.38;;;;;;;;;;10525774;28;20031;-76
2022/05/04 10:00:19;;;;;;;15.63;9.35;;;;;;;;;;10517579;28;20039;-72
2022/05/04 10:05:23;;;;;;;7.13;3.80;;;;;;;;;;10534614;28;20050;-76
2022/05/04 10:10:26;;;;;;;3.72;2.40;;;;;;;;;;10516789;28;20136;-73
2022/05/04 10:15:31;;;;;;;6.07;2.35;;;;;;;;;;10520324;28;20485;-73
2022/05/04 10:20:38;;;;;;;4.43;2.88;;;;;;;;;;10530022;28;20564;-73
2022/05/04 10:25:42;;;;;;;4.35;2.15;;;;;;;;;;10534856;28;20109;-73
2022/05/04 10:30:47;;;;;;;4.47;2.25;;;;;;;;;;10539326;28;20135;-72
2022/05/04 10:35:51;;;;;;;3.47;2.00;;;;;;;;;;10525958;28;20495;-74
2022/05/04 10:40:55;;;;;;;4.05;2.15;;;;;;;;;;10523148;28;20113;-76
2022/05/04 10:46:03;;;;;;;2.80;2.00;;;;;;;;;;10526358;28;20138;-76
2022/05/04 10:51:18;;;;;;;4.38;2.20;;;;;;;;;;10544736;28;20032;-75
2022/05/04 10:56:21;;;;;;;4.50;2.97;;;;;;;;;;10538354;28;20048;-74
2022/05/04 11:01:24;;;;;;;3.47;2.47;;;;;;;;;;10545211;28;20031;-76
2022/05/04 11:06:30;;;;;;;7.30;3.55;;;;;;;;;;10530103;28;20365;-74
2022/05/04 11:11:33;;;;;;;4.10;2.80;;;;;;;;;;10529871;28;20089;-74
2022/05/04 11:16:36;;;;;;;;;;;;;;;;;;10535182;28;20069;-73
2022/05/04 11:21:40;;;;;;;9.60;3.50;;;;;;;;;;10533643;28;19919;-72
2022/05/04 11:26:44;;;;;;;13.45;4.07;;;;;;;;;;10546344;28;20392;-76
2022/05/04 11:31:52;;;;;;;6.13;3.10;;;;;;;;;;10525998;28;20940;-73
2022/05/04 11:36:57;;;;;;;4.28;2.72;;;;;;;;;;10529980;28;20044;-73
2022/05/04 11:42:01;;;;;;;8.25;3.45;;;;;;;;;;10535272;28;20042;-74
2022/05/04 11:47:04;;;;;;;4.90;3.45;;;;;;;;;;10545404;28;20043;-73
2022/05/04 11:52:10;;;;;;;8.05;2.90;;;;;;;;;;10524839;28;20032;-76
2022/05/04 11:57:14;;;;;;;5.43;2.97;;;;;;;;;;10524469;28;20515;-75
2022/05/04 12:02:17;;;;;;;4.90;3.00;;;;;;;;;;10547470;28;20035;-72
2022/05/04 12:07:20;;;;;;;;;;;;;;;;;;10531219;28;20085;-76
2022/05/04 12:12:24;;;;;;;3.53;2.57;;;;;;;;;;10541585;28;19979;-75
2022/05/04 12:17:28;;;;;;;4.57;2.60;;;;;;;;;;10539317;28;20098;-73
2022/05/04 12:22:31;;;;;;;7.05;2.58;;;;;;;;;;10534420;28;20031;-73
2022/05/04 12:27:37;;;;;;;6.63;2.50;;;;;;;;;;10529109;28;20051;-73
2022/05/04 12:38:03;;;;;;;2.83;2.05;;;;;;;;;;10547465;28;20062;-76
2022/05/04 12:43:08;;;;;;;4.70;2.65;;;;;;;;;;10543583;28;20048;-74
2022/05/04 12:48:11;;;;;;;7.43;2.60;;;;;;;;;;10527911;28;20404;-75
2022/05/04 12:53:13;;;;;;;;;;;;;;;;;;10545831;28;20099;-77
2022/05/04 12:58:17;;;;;;;3.05;2.00;;;;;;;;;;10544353;28;19956;-76
2022/05/04 13:03:20;;;;;;;3.65;2.40;;;;;;;;;;10525399;28;20043;-75
2022/05/04 13:08:23;;;;;;;3.55;2.50;;;;;;;;;;10540179;28;20127;-75
2022/05/04 13:13:27;;;;;;;3.30;2.10;;;;;;;;;;10520350;28;20071;-76
2022/05/04 13:18:30;;;;;;;5.50;2.90;;;;;;;;;;10524346;28;20067;-74
2022/05/04 13:23:34;;;;;;;4.32;2.70;;;;;;;;;;10541170;28;20380;-76
2022/05/04 13:28:38;;;;;;;5.38;2.60;;;;;;;;;;10523210;28;20063;-75
2022/05/04 13:33:41;;;;;;;4.22;2.20;;;;;;;;;;10543674;28;20109;-74
2022/05/04 13:38:45;;;;;;;4.82;2.30;;;;;;;;;;10539268;28;20032;-77
2022/05/04 13:43:50;;;;;;;3.72;2.28;;;;;;;;;;10541625;28;20143;-75
2022/05/04 13:48:54;;;;;;;5.45;2.65;;;;;;;;;;10526308;28;20046;-71
2022/05/04 13:53:57;;;;;;;5.05;2.47;;;;;;;;;;10544074;28;20028;-71
2022/05/04 13:59:01;;;;;;;2.40;2.20;;;;;;;;;;10519759;28;20494;-72
2022/05/04 14:04:12;;;;;;;3.35;2.10;;;;;;;;;;10537476;28;20032;-75
2022/05/04 14:09:15;;;;;;;3.83;2.60;;;;;;;;;;10526234;28;20117;-74
2022/05/04 14:19:37;;;;;;;2.60;1.95;;;;;;;;;;10530162;28;20055;-75
2022/05/04 14:24:40;;;;;;;3.47;2.30;;;;;;;;;;10546834;28;20105;-73
2022/05/04 14:29:44;;;;;;;5.43;2.40;;;;;;;;;;10544495;28;20561;-73
2022/05/04 14:34:47;;;;;;;2.28;1.73;;;;;;;;;;10536597;28;20044;-74
2022/05/04 14:39:50;;;;;;;3.22;1.92;;;;;;;;;;10529624;28;20060;-74
2022/05/04 14:44:54;;;;;;;2.67;1.70;;;;;;;;;;10545281;27;20036;-73
2022/05/04 14:49:58;;;;;;;3.80;1.90;;;;;;;;;;10530452;28;20084;-74
2022/05/04 14:55:00;;;;;;;2.97;1.50;;;;;;;;;;10548546;28;20040;-74
2022/05/04 15:00:05;;;;;;;6.65;2.63;;;;;;;;;;10550054;28;20047;-75
2022/05/04 15:05:08;;;;;;;3.80;2.60;;;;;;;;;;10530636;28;20063;-74
2022/05/04 15:10:11;;;;;;;3.03;2.30;;;;;;;;;;10528971;28;20063;-75
2022/05/04 15:15:16;;;;;;;3.83;2.63;;;;;;;;;;10537552;28;20126;-75
2022/05/04 15:20:19;;;;;;;4.00;2.80;;;;;;;;;;10531372;28;20035;-76
2022/05/04 15:25:22;;;;;;;6.50;3.05;;;;;;;;;;10534979;28;20368;-74
2022/05/04 15:30:27;;;;;;;11.95;3.30;;;;;;;;;;10532107;28;20035;-75
2022/05/04 15:35:30;;;;;;;4.55;2.90;;;;;;;;;;10529073;28;20059;-75
2022/05/04 15:40:33;;;;;;;5.97;3.63;;;;;;;;;;10554241;28;20039;-74
2022/05/04 15:45:37;;;;;;;4.65;3.30;;;;;;;;;;10549816;28;20346;-74
2022/05/04 15:50:39;;;;;;;5.65;3.35;;;;;;;;;;10537684;28;20367;-73
2022/05/04 15:55:44;;;;;;;5.60;3.13;;;;;;;;;;10554151;28;20061;-76
2022/05/04 16:00:48;;;;;;;5.65;3.10;;;;;;;;;;10549760;28;20035;-74
2022/05/04 16:05:51;;;;;;;9.15;4.10;;;;;;;;;;10549286;28;20031;-74
2022/05/04 16:10:54;;;;;;;6.65;3.10;;;;;;;;;;10528428;28;20580;-74
2022/05/04 16:15:58;;;;;;;3.60;2.25;;;;;;;;;;10539921;28;20502;-75
2022/05/04 16:26:22;;;;;;;4.55;2.33;;;;;;;;;;10546110;28;20028;-74
2022/05/04 16:31:25;;;;;;;;;;;;;;;;;;10549238;28;20032;-75
2022/05/04 16:36:30;;;;;;;5.38;2.58;;;;;;;;;;10520362;28;20019;-77
2022/05/04 16:41:52;;;;;;;5.57;2.95;;;;;;;;;;10545590;28;20470;-77
2022/05/04 16:46:55;;;;;;;4.47;2.42;;;;;;;;;;10531170;28;20376;-75
2022/05/04 16:51:59;;;;;;;7.90;2.80;;;;;;;;;;10533255;28;20533;-75
2022/05/04 16:57:02;;;;;;;4.47;1.95;;;;;;;;;;10539971;28;20518;-78
2022/05/04 17:02:05;;;;;;;3.03;1.40;;;;;;;;;;10532518;28;20042;-77
2022/05/04 17:07:10;;;;;;;8.80;3.25;;;;;;;;;;10549247;28;20545;-77
2022/05/04 17:12:14;;;;;;;2.65;1.17;;;;;;;;;;10554955;28;20452;-77
2022/05/04 17:17:18;;;;;;;5.70;2.97;;;;;;;;;;10524887;28;20051;-77
2022/05/04 17:22:23;;;;;;;10.18;4.13;;;;;;;;;;10547227;28;20028;-76
2022/05/04 17:27:26;;;;;;;5.75;3.10;;;;;;;;;;10541564;28;20131;-73
2022/05/04 17:37:52;;;;;;;9.57;3.70;;;;;;;;;;10531242;28;20599;-74
2022/05/04 17:42:54;;;;;;;6.55;3.50;;;;;;;;;;10527185;28;20036;-77
2022/05/04 17:47:57;;;;;;;7.85;4.07;;;;;;;;;;10529252;28;20072;-73
2022/05/04 17:53:01;;;;;;;5.17;2.43;;;;;;;;;;10529251;28;20507;-77
2022/05/04 17:58:04;;;;;;;5.70;2.20;;;;;;;;;;10544350;28;20036;-75
2022/05/04 18:08:29;;;;;;;6.78;2.35;;;;;;;;;;10535998;28;20142;-76
2022/05/04 18:13:31;;;;;;;6.32;3.03;;;;;;;;;;10556750;28;20039;-75
2022/05/04 18:18:34;;;;;;;9.83;4.87;;;;;;;;;;10532839;28;20040;-77
2022/05/04 18:23:39;;;;;;;9.33;3.97;;;;;;;;;;10546067;28;20201;-74
2022/05/04 18:28:42;;;;;;;9.43;4.03;;;;;;;;;;10553661;28;20075;-73
2022/05/04 18:33:45;;;;;;;7.53;4.00;;;;;;;;;;10555211;28;20040;-75
2022/05/04 18:38:49;;;;;;;5.78;2.83;;;;;;;;;;10532906;28;20139;-75
2022/05/04 18:43:52;;;;;;;10.23;4.20;;;;;;;;;;10549872;28;20043;-74
2022/05/04 18:48:54;;;;;;;9.53;2.97;;;;;;;;;;10557361;28;20384;-73
2022/05/04 18:54:01;;;;;;;5.22;2.15;;;;;;;;;;10539694;28;20127;-74
2022/05/04 18:59:05;;;;;;;5.10;2.88;;;;;;;;;;10538947;28;20093;-74
2022/05/04 19:04:08;;;;;;;10.98;3.92;;;;;;;;;;10558867;28;20054;-74
2022/05/04 19:09:12;;;;;;;11.63;4.87;;;;;;;;;;10535340;28;20081;-74
2022/05/04 19:14:15;;;;;;;8.00;3.45;;;;;;;;;;10532691;28;20040;-75
2022/05/04 19:19:18;;;;;;;10.77;4.93;;;;;;;;;;10532316;28;20225;-76
2022/05/04 19:24:22;;;;;;;11.82;4.68;;;;;;;;;;10523077;28;20059;-75
2022/05/04 19:29:26;;;;;;;5.72;2.53;;;;;;;;;;10547601;28;20582;-73
2022/05/04 19:34:29;;;;;;;8.07;4.40;;;;;;;;;;10523734;28;20081;-73
2022/05/04 19:39:33;;;;;;;3.00;1.75;;;;;;;;;;10552505;28;20039;-74
2022/05/04 19:44:36;;;;;;;6.00;2.95;;;;;;;;;;10535224;28;20499;-75
2022/05/04 19:49:39;;;;;;;7.28;4.00;;;;;;;;;;10528866;28;20078;-75
2022/05/04 19:54:45;;;;;;;4.13;2.72;;;;;;;;;;10554132;28;20122;-74
2022/05/04 19:59:51;;;;;;;8.73;5.03;;;;;;;;;;10528164;28;20048;-75
2022/05/04 20:04:55;;;;;;;8.35;3.42;;;;;;;;;;10530995;28;20108;-73
2022/05/04 20:09:59;;;;;;;3.40;2.35;;;;;;;;;;10537638;28;20048;-76
2022/05/04 20:15:02;;;;;;;9.82;4.18;;;;;;;;;;10535205;28;20036;-77
2022/05/04 20:20:05;;;;;;;8.88;4.45;;;;;;;;;;10527428;28;20385;-77
2022/05/04 20:25:10;;;;;;;7.47;4.38;;;;;;;;;;10524062;28;20048;-76
2022/05/04 20:30:14;;;;;;;12.02;5.53;;;;;;;;;;10543131;28;20081;-73
2022/05/04 20:35:17;;;;;;;9.20;4.80;;;;;;;;;;10544648;28;20503;-76
2022/05/04 20:40:21;;;;;;;10.80;5.13;;;;;;;;;;10527207;28;20036;-76
2022/05/04 20:45:24;;;;;;;9.20;4.43;;;;;;;;;;10528541;28;20089;-75
2022/05/04 20:55:52;;;;;;;9.93;4.93;;;;;;;;;;10523481;28;20388;-76
2022/05/04 21:00:54;;;;;;;9.35;4.88;;;;;;;;;;10546161;28;20040;-76
2022/05/04 21:05:58;;;;;;;14.37;5.33;;;;;;;;;;10523828;28;21177;-75
2022/05/04 21:11:02;;;;;;;9.70;5.03;;;;;;;;;;10526316;28;20500;-75
2022/05/04 21:16:06;;;;;;;9.82;5.38;;;;;;;;;;10525854;28;20410;-76
2022/05/04 21:21:09;;;;;;;11.70;5.20;;;;;;;;;;10524681;28;20058;-77
2022/05/04 21:26:13;;;;;;;11.63;5.80;;;;;;;;;;10540906;28;20067;-79
2022/05/04 21:31:16;;;;;;;10.82;5.50;;;;;;;;;;10530055;28;20090;-78
2022/05/04 21:36:19;;;;;;;11.10;5.25;;;;;;;;;;10530398;28;20035;-77
2022/05/04 21:41:24;;;;;;;9.53;5.13;;;;;;;;;;10543511;28;20542;-75
2022/05/04 21:46:27;;;;;;;9.45;4.28;;;;;;;;;;10547106;28;20066;-77
2022/05/04 21:51:30;;;;;;;8.57;4.53;;;;;;;;;;10545529;28;20562;-73
2022/05/04 21:56:34;;;;;;;12.38;5.10;;;;;;;;;;10547173;28;20043;-76
2022/05/04 22:01:37;;;;;;;11.45;5.40;;;;;;;;;;10531236;28;20067;-77
2022/05/04 22:06:40;;;;;;;11.75;5.68;;;;;;;;;;10522145;28;20479;-77
2022/05/04 22:17:06;;;;;;;;;;;;;;;;;;10510483;28;20052;-77
2022/05/04 22:22:09;;;;;;;8.88;4.53;;;;;;;;;;10525032;28;20026;-75
2022/05/04 22:27:13;;;;;;;5.95;3.25;;;;;;;;;;10547017;28;20027;-76
2022/05/04 22:32:19;;;;;;;5.28;2.55;;;;;;;;;;10529077;28;20039;-73
2022/05/04 22:37:22;;;;;;;12.48;4.82;;;;;;;;;;10540650;28;20467;-74
2022/05/04 22:42:27;;;;;;;9.38;5.13;;;;;;;;;;10533152;28;20033;-75
2022/05/04 22:47:30;;;;;;;10.23;5.80;;;;;;;;;;10538500;28;20039;-76
2022/05/04 22:52:33;;;;;;;11.43;5.80;;;;;;;;;;10547550;28;20602;-74
2022/05/04 22:57:38;;;;;;;9.83;5.13;;;;;;;;;;10558300;28;20506;-78
2022/05/04 23:02:41;;;;;;;10.88;5.20;;;;;;;;;;10539807;28;20135;-76
2022/05/04 23:07:44;;;;;;;10.88;5.07;;;;;;;;;;10529987;28;20070;-75
2022/05/04 23:12:48;;;;;;;10.93;4.90;;;;;;;;;;10549292;28;20080;-76
2022/05/04 23:17:51;;;;;;;9.85;4.75;;;;;;;;;;10536841;28;20032;-77
2022/05/04 23:22:54;;;;;;;15.20;5.57;;;;;;;;;;10556930;28;20028;-75
2022/05/04 23:27:58;;;;;;;10.55;4.57;;;;;;;;;;10534320;28;20078;-76
2022/05/04 23:33:01;;;;;;;9.43;4.45;;;;;;;;;;10530193;28;20032;-76
2022/05/04 23:38:05;;;;;;;9.30;4.70;;;;;;;;;;10547703;28;20100;-75
2022/05/04 23:43:09;;;;;;;3.50;1.85;;;;;;;;;;10536742;28;20530;-77
2022/05/04 23:48:12;;;;;;;8.30;4.13;;;;;;;;;;10556346;28;20035;-77
2022/05/04 23:53:16;;;;;;;;;;;;;;;;;;10530206;28;20077;-78
2022/05/04 23:58:20;;;;;;;4.22;2.10;;;;;;;;;;10547912;28;19977;-76
